N620JH LGSM-LGKR
Flight info
| Callsign | N620JH |
|---|---|
| Flight time | 0h 59m |
| Altitude | 40000 |
| Route | LARKI DCT RIPLI UL995 VARDI |
| Aircraft | C750/M-SBDE3FGHRWXY/S |
Departure
| Time | 2026-05-08 17:28 |
|---|---|
| Airport | Samos Airport (LGSM) |
Arrival
| Time | 2026-05-08 18:27 |
|---|---|
| Airport | Corfu Ioannis Kapodistrias International Airport (LGKR) |
| Time | Latitude | Longitude | Altitude | Speed | Heading |
|---|---|---|---|---|---|
| 2026-05-08 17:06 | 37.69035 | 26.91538 | 25 ft | 0 kts | 10° |
| 2026-05-08 17:20 | 37.69031 | 26.91537 | 25 ft | 2 kts | 10° |
| 2026-05-08 17:21 | 37.69013 | 26.91533 | 27 ft | 3 kts | 10° |
| 2026-05-08 17:21 | 37.69001 | 26.91537 | 29 ft | 0 kts | 292° |
| 2026-05-08 17:23 | 37.69003 | 26.91531 | 27 ft | 4 kts | 289° |
| 2026-05-08 17:23 | 37.69005 | 26.91464 | 25 ft | 11 kts | 261° |
| 2026-05-08 17:24 | 37.68998 | 26.91341 | 25 ft | 17 kts | 274° |
| 2026-05-08 17:24 | 37.69007 | 26.91165 | 25 ft | 22 kts | 274° |
| 2026-05-08 17:24 | 37.68965 | 26.91051 | 25 ft | 14 kts | 198° |
| 2026-05-08 17:24 | 37.68934 | 26.90932 | 25 ft | 20 kts | 272° |
| 2026-05-08 17:25 | 37.68950 | 26.90713 | 25 ft | 27 kts | 275° |
| 2026-05-08 17:25 | 37.68965 | 26.90486 | 25 ft | 25 kts | 275° |
| 2026-05-08 17:25 | 37.68980 | 26.90272 | 28 ft | 24 kts | 272° |
| 2026-05-08 17:25 | 37.68981 | 26.90160 | 25 ft | 4 kts | 191° |
| 2026-05-08 17:26 | 37.68977 | 26.90192 | 29 ft | 5 kts | 94° |
| 2026-05-08 17:26 | 37.68976 | 26.90205 | 29 ft | 0 kts | 93° |
| 2026-05-08 17:27 | 37.68976 | 26.90215 | 29 ft | 6 kts | 93° |
| 2026-05-08 17:27 | 37.68953 | 26.90609 | 25 ft | 102 kts | 95° |
| 2026-05-08 17:27 | 37.68879 | 26.91818 | 235 ft | 151 kts | 95° |
| 2026-05-08 17:28 | 37.68733 | 26.93131 | 942 ft | 155 kts | 108° |
| 2026-05-08 17:28 | 37.67952 | 26.94168 | 1191 ft | 185 kts | 160° |
| 2026-05-08 17:28 | 37.66629 | 26.93996 | 1559 ft | 203 kts | 203° |
| 2026-05-08 17:28 | 37.65305 | 26.93208 | 2139 ft | 225 kts | 201° |
| 2026-05-08 17:29 | 37.63698 | 26.92654 | 2746 ft | 246 kts | 188° |
| 2026-05-08 17:29 | 37.61973 | 26.92605 | 3326 ft | 253 kts | 176° |
| 2026-05-08 17:29 | 37.60214 | 26.92684 | 4294 ft | 255 kts | 190° |
| 2026-05-08 17:29 | 37.58656 | 26.91653 | 5290 ft | 256 kts | 221° |
| 2026-05-08 17:30 | 37.57574 | 26.89911 | 6269 ft | 259 kts | 244° |
| 2026-05-08 17:30 | 37.57158 | 26.87693 | 7273 ft | 258 kts | 268° |
| 2026-05-08 17:30 | 37.57195 | 26.85471 | 8417 ft | 256 kts | 272° |
| 2026-05-08 17:30 | 37.57236 | 26.83201 | 9586 ft | 256 kts | 271° |
| 2026-05-08 17:31 | 37.57238 | 26.80953 | 10551 ft | 257 kts | 271° |
| 2026-05-08 17:31 | 37.57241 | 26.78637 | 11113 ft | 273 kts | 271° |
| 2026-05-08 17:31 | 37.57254 | 26.76207 | 11601 ft | 289 kts | 271° |
| 2026-05-08 17:31 | 37.57267 | 26.73612 | 12105 ft | 303 kts | 271° |
| 2026-05-08 17:32 | 37.57276 | 26.70896 | 12618 ft | 316 kts | 271° |
| 2026-05-08 17:32 | 37.57286 | 26.68074 | 13141 ft | 327 kts | 271° |
| 2026-05-08 17:32 | 37.57296 | 26.65169 | 13636 ft | 336 kts | 271° |
| 2026-05-08 17:32 | 37.57305 | 26.62200 | 14302 ft | 340 kts | 271° |
| 2026-05-08 17:33 | 37.57313 | 26.59210 | 14940 ft | 343 kts | 271° |
| 2026-05-08 17:33 | 37.57321 | 26.56187 | 15578 ft | 346 kts | 271° |
| 2026-05-08 17:33 | 37.57328 | 26.53143 | 16261 ft | 349 kts | 271° |
| 2026-05-08 17:33 | 37.57334 | 26.50066 | 16912 ft | 353 kts | 271° |
| 2026-05-08 17:34 | 37.57340 | 26.46954 | 17593 ft | 357 kts | 271° |
| 2026-05-08 17:34 | 37.57345 | 26.43812 | 18303 ft | 360 kts | 271° |
| 2026-05-08 17:34 | 37.57349 | 26.40635 | 18931 ft | 364 kts | 271° |
| 2026-05-08 17:34 | 37.57352 | 26.37435 | 19604 ft | 366 kts | 270° |
| 2026-05-08 17:35 | 37.57354 | 26.34213 | 20281 ft | 369 kts | 270° |
| 2026-05-08 17:35 | 37.57356 | 26.30965 | 20971 ft | 372 kts | 270° |
| 2026-05-08 17:35 | 37.57356 | 26.27698 | 21641 ft | 375 kts | 270° |
| 2026-05-08 17:35 | 37.57356 | 26.24391 | 22349 ft | 377 kts | 270° |
| 2026-05-08 17:36 | 37.57354 | 26.21075 | 23062 ft | 380 kts | 270° |
| 2026-05-08 17:36 | 37.57352 | 26.17735 | 23672 ft | 383 kts | 269° |
| 2026-05-08 17:36 | 37.57350 | 26.14361 | 24240 ft | 386 kts | 270° |
| 2026-05-08 17:36 | 37.57346 | 26.10973 | 24807 ft | 388 kts | 269° |
| 2026-05-08 17:37 | 37.57340 | 26.07608 | 25395 ft | 389 kts | 270° |
| 2026-05-08 17:37 | 37.57334 | 26.04191 | 25946 ft | 392 kts | 270° |
| 2026-05-08 17:37 | 37.57327 | 26.00746 | 26534 ft | 394 kts | 270° |
| 2026-05-08 17:37 | 37.57319 | 25.97278 | 27097 ft | 396 kts | 270° |
| 2026-05-08 17:38 | 37.57310 | 25.93793 | 27689 ft | 398 kts | 270° |
| 2026-05-08 17:38 | 37.57299 | 25.90308 | 28311 ft | 399 kts | 270° |
| 2026-05-08 17:38 | 37.57288 | 25.86795 | 28838 ft | 401 kts | 270° |
| 2026-05-08 17:38 | 37.57276 | 25.83262 | 29379 ft | 404 kts | 270° |
| 2026-05-08 17:39 | 37.57262 | 25.79720 | 29899 ft | 406 kts | 270° |
| 2026-05-08 17:39 | 37.57247 | 25.76149 | 30380 ft | 409 kts | 270° |
| 2026-05-08 17:39 | 37.57231 | 25.72550 | 30801 ft | 412 kts | 270° |
| 2026-05-08 17:39 | 37.57214 | 25.68926 | 31258 ft | 413 kts | 270° |
| 2026-05-08 17:40 | 37.57196 | 25.65327 | 31910 ft | 409 kts | 270° |
| 2026-05-08 17:40 | 37.57177 | 25.61742 | 32534 ft | 407 kts | 270° |
| 2026-05-08 17:40 | 37.57157 | 25.58176 | 33141 ft | 406 kts | 270° |
| 2026-05-08 17:40 | 37.57135 | 25.54626 | 33754 ft | 405 kts | 269° |
| 2026-05-08 17:41 | 37.57113 | 25.51085 | 34342 ft | 403 kts | 269° |
| 2026-05-08 17:41 | 37.57090 | 25.47562 | 34906 ft | 401 kts | 269° |
| 2026-05-08 17:41 | 37.57066 | 25.44054 | 35464 ft | 400 kts | 269° |
| 2026-05-08 17:41 | 37.57041 | 25.40556 | 36031 ft | 398 kts | 269° |
| 2026-05-08 17:42 | 37.57015 | 25.37117 | 36604 ft | 397 kts | 269° |
| 2026-05-08 17:42 | 37.56989 | 25.33649 | 37191 ft | 395 kts | 269° |
| 2026-05-08 17:42 | 37.56961 | 25.30199 | 37825 ft | 392 kts | 270° |
| 2026-05-08 17:42 | 37.56932 | 25.26776 | 38450 ft | 389 kts | 270° |
| 2026-05-08 17:43 | 37.56903 | 25.23376 | 38964 ft | 388 kts | 270° |
| 2026-05-08 17:43 | 37.56873 | 25.19970 | 39333 ft | 389 kts | 270° |
| 2026-05-08 17:43 | 37.56841 | 25.16543 | 39698 ft | 391 kts | 270° |
| 2026-05-08 17:43 | 37.56809 | 25.13113 | 40051 ft | 393 kts | 270° |
| 2026-05-08 17:44 | 37.56775 | 25.09619 | 40071 ft | 404 kts | 270° |
| 2026-05-08 17:44 | 37.56739 | 25.06044 | 40074 ft | 414 kts | 269° |
| 2026-05-08 17:44 | 37.56661 | 24.98618 | 40081 ft | 432 kts | 270° |
| 2026-05-08 17:45 | 37.56577 | 24.91117 | 40087 ft | 444 kts | 270° |
| 2026-05-08 17:45 | 37.56485 | 24.83256 | 40082 ft | 452 kts | 269° |
| 2026-05-08 17:46 | 37.56386 | 24.75351 | 40081 ft | 455 kts | 269° |
| 2026-05-08 17:46 | 37.56281 | 24.67377 | 40068 ft | 456 kts | 269° |
| 2026-05-08 17:47 | 37.56189 | 24.60680 | 40067 ft | 456 kts | 269° |
| 2026-05-08 17:47 | 37.56088 | 24.53594 | 40066 ft | 456 kts | 269° |
| 2026-05-08 17:48 | 37.55968 | 24.45614 | 40061 ft | 456 kts | 269° |
| 2026-05-08 17:48 | 37.56054 | 24.38521 | 40057 ft | 455 kts | 276° |
| 2026-05-08 17:49 | 37.57425 | 24.30819 | 40059 ft | 456 kts | 287° |
| 2026-05-08 17:49 | 37.60158 | 24.23760 | 40054 ft | 461 kts | 299° |
| 2026-05-08 17:50 | 37.64055 | 24.17529 | 40065 ft | 465 kts | 306° |
| 2026-05-08 17:50 | 37.68137 | 24.11437 | 40066 ft | 465 kts | 306° |
| 2026-05-08 17:51 | 37.72138 | 24.05487 | 40068 ft | 463 kts | 306° |
| 2026-05-08 17:51 | 37.76065 | 23.99629 | 40069 ft | 461 kts | 306° |
| 2026-05-08 17:52 | 37.80029 | 23.93698 | 40072 ft | 462 kts | 306° |
| 2026-05-08 17:53 | 37.85883 | 23.84934 | 40074 ft | 462 kts | 306° |
| 2026-05-08 17:53 | 37.89528 | 23.78747 | 40067 ft | 457 kts | 298° |
| 2026-05-08 17:54 | 37.92410 | 23.71804 | 40075 ft | 452 kts | 295° |
| 2026-05-08 17:54 | 37.95309 | 23.64783 | 40069 ft | 453 kts | 295° |
| 2026-05-08 17:55 | 37.98072 | 23.58000 | 40057 ft | 454 kts | 295° |
| 2026-05-08 17:55 | 38.00912 | 23.51058 | 40053 ft | 453 kts | 295° |
| 2026-05-08 17:56 | 38.03801 | 23.43957 | 40052 ft | 454 kts | 294° |
| 2026-05-08 17:56 | 38.06699 | 23.36833 | 40044 ft | 454 kts | 295° |
| 2026-05-08 17:57 | 38.09584 | 23.29704 | 40051 ft | 454 kts | 294° |
| 2026-05-08 17:57 | 38.12469 | 23.22581 | 40051 ft | 453 kts | 294° |
| 2026-05-08 17:58 | 38.15353 | 23.15433 | 40049 ft | 454 kts | 294° |
| 2026-05-08 17:58 | 38.18345 | 23.08363 | 40032 ft | 456 kts | 296° |
| 2026-05-08 17:59 | 38.21431 | 23.01352 | 40038 ft | 457 kts | 296° |
| 2026-05-08 17:59 | 38.24517 | 22.94282 | 40035 ft | 457 kts | 296° |
| 2026-05-08 18:00 | 38.27608 | 22.87217 | 40040 ft | 457 kts | 296° |
| 2026-05-08 18:00 | 38.32228 | 22.76601 | 40049 ft | 458 kts | 296° |
| 2026-05-08 18:01 | 38.35340 | 22.69438 | 40048 ft | 463 kts | 296° |
| 2026-05-08 18:01 | 38.38450 | 22.62260 | 40050 ft | 463 kts | 296° |
| 2026-05-08 18:02 | 38.41530 | 22.55135 | 40063 ft | 463 kts | 296° |
| 2026-05-08 18:02 | 38.44635 | 22.47940 | 40066 ft | 462 kts | 296° |
| 2026-05-08 18:03 | 38.47735 | 22.40733 | 40067 ft | 464 kts | 296° |
| 2026-05-08 18:03 | 38.50839 | 22.33508 | 40066 ft | 463 kts | 296° |
| 2026-05-08 18:04 | 38.53929 | 22.26292 | 40077 ft | 464 kts | 296° |
| 2026-05-08 18:04 | 38.56976 | 22.19174 | 39609 ft | 439 kts | 296° |
| 2026-05-08 18:05 | 38.58420 | 22.15784 | 39075 ft | 438 kts | 296° |
| 2026-05-08 18:05 | 38.59897 | 22.12300 | 38526 ft | 451 kts | 296° |
| 2026-05-08 18:05 | 38.61399 | 22.08766 | 37881 ft | 452 kts | 296° |
| 2026-05-08 18:05 | 38.62903 | 22.05241 | 37296 ft | 452 kts | 296° |
| 2026-05-08 18:06 | 38.64401 | 22.01716 | 36710 ft | 451 kts | 296° |
| 2026-05-08 18:06 | 38.65898 | 21.98178 | 36134 ft | 451 kts | 296° |
| 2026-05-08 18:06 | 38.67391 | 21.94646 | 35575 ft | 452 kts | 296° |
| 2026-05-08 18:06 | 38.68886 | 21.91119 | 35028 ft | 450 kts | 297° |
| 2026-05-08 18:07 | 38.70383 | 21.87602 | 34487 ft | 450 kts | 297° |
| 2026-05-08 18:07 | 38.71874 | 21.84088 | 33928 ft | 449 kts | 297° |
| 2026-05-08 18:07 | 38.73354 | 21.80582 | 33312 ft | 449 kts | 296° |
| 2026-05-08 18:07 | 38.74847 | 21.77041 | 32737 ft | 453 kts | 296° |
| 2026-05-08 18:08 | 38.76349 | 21.73488 | 32153 ft | 454 kts | 296° |
| 2026-05-08 18:08 | 38.77856 | 21.69919 | 31589 ft | 457 kts | 296° |
| 2026-05-08 18:08 | 38.79368 | 21.66329 | 31031 ft | 459 kts | 296° |
| 2026-05-08 18:08 | 38.80882 | 21.62724 | 30473 ft | 458 kts | 296° |
| 2026-05-08 18:09 | 38.82388 | 21.59144 | 29892 ft | 452 kts | 296° |
| 2026-05-08 18:09 | 38.83871 | 21.55614 | 29272 ft | 449 kts | 296° |
| 2026-05-08 18:09 | 38.85349 | 21.52087 | 28650 ft | 445 kts | 296° |
| 2026-05-08 18:09 | 38.86806 | 21.48606 | 28044 ft | 441 kts | 296° |
| 2026-05-08 18:10 | 38.88246 | 21.45162 | 27458 ft | 437 kts | 296° |
| 2026-05-08 18:10 | 38.89678 | 21.41737 | 26907 ft | 431 kts | 296° |
| 2026-05-08 18:10 | 38.91082 | 21.38374 | 26351 ft | 418 kts | 296° |
| 2026-05-08 18:10 | 38.92404 | 21.35214 | 26089 ft | 390 kts | 296° |
| 2026-05-08 18:11 | 38.93698 | 21.32096 | 26096 ft | 403 kts | 296° |
| 2026-05-08 18:11 | 38.95039 | 21.28856 | 26100 ft | 417 kts | 296° |
| 2026-05-08 18:11 | 38.96416 | 21.25548 | 26094 ft | 423 kts | 296° |
| 2026-05-08 18:11 | 38.97809 | 21.22208 | 26097 ft | 426 kts | 296° |
| 2026-05-08 18:12 | 38.99203 | 21.18849 | 26087 ft | 426 kts | 296° |
| 2026-05-08 18:12 | 39.00596 | 21.15479 | 26088 ft | 428 kts | 296° |
| 2026-05-08 18:12 | 39.01978 | 21.12135 | 26078 ft | 430 kts | 296° |
| 2026-05-08 18:12 | 39.03323 | 21.08886 | 26076 ft | 430 kts | 296° |
| 2026-05-08 18:13 | 39.04725 | 21.05496 | 26071 ft | 430 kts | 296° |
| 2026-05-08 18:13 | 39.06126 | 21.02096 | 26072 ft | 430 kts | 296° |
| 2026-05-08 18:13 | 39.07536 | 20.98672 | 25617 ft | 434 kts | 296° |
| 2026-05-08 18:13 | 39.08936 | 20.95274 | 24914 ft | 425 kts | 296° |
| 2026-05-08 18:14 | 39.10315 | 20.91925 | 24209 ft | 420 kts | 296° |
| 2026-05-08 18:14 | 39.11674 | 20.88613 | 23509 ft | 416 kts | 296° |
| 2026-05-08 18:14 | 39.13021 | 20.85328 | 22705 ft | 413 kts | 296° |
| 2026-05-08 18:14 | 39.14357 | 20.82069 | 21925 ft | 411 kts | 295° |
| 2026-05-08 18:15 | 39.15688 | 20.78817 | 21171 ft | 410 kts | 296° |
| 2026-05-08 18:15 | 39.17016 | 20.75570 | 20436 ft | 409 kts | 296° |
| 2026-05-08 18:15 | 39.18338 | 20.72335 | 19717 ft | 406 kts | 295° |
| 2026-05-08 18:15 | 39.19649 | 20.69123 | 19013 ft | 404 kts | 295° |
| 2026-05-08 18:16 | 39.20952 | 20.65923 | 18313 ft | 403 kts | 295° |
| 2026-05-08 18:16 | 39.22257 | 20.62718 | 17527 ft | 401 kts | 295° |
| 2026-05-08 18:16 | 39.23548 | 20.59552 | 16745 ft | 396 kts | 295° |
| 2026-05-08 18:16 | 39.24822 | 20.56416 | 15996 ft | 393 kts | 295° |
| 2026-05-08 18:17 | 39.26083 | 20.53309 | 15261 ft | 390 kts | 295° |
| 2026-05-08 18:17 | 39.27335 | 20.50221 | 14541 ft | 386 kts | 295° |
| 2026-05-08 18:17 | 39.28577 | 20.47156 | 13836 ft | 383 kts | 295° |
| 2026-05-08 18:17 | 39.29807 | 20.44115 | 13072 ft | 384 kts | 295° |
| 2026-05-08 18:18 | 39.31018 | 20.41128 | 12306 ft | 361 kts | 295° |
| 2026-05-08 18:18 | 39.32145 | 20.38351 | 12033 ft | 338 kts | 295° |
| 2026-05-08 18:18 | 39.33242 | 20.35598 | 12037 ft | 350 kts | 294° |
| 2026-05-08 18:18 | 39.34335 | 20.32802 | 12037 ft | 344 kts | 294° |
| 2026-05-08 18:19 | 39.35413 | 20.30065 | 12036 ft | 347 kts | 294° |
| 2026-05-08 18:19 | 39.36517 | 20.27279 | 11645 ft | 348 kts | 294° |
| 2026-05-08 18:19 | 39.37371 | 20.24508 | 10947 ft | 320 kts | 279° |
| 2026-05-08 18:19 | 39.37406 | 20.21737 | 10323 ft | 300 kts | 265° |
| 2026-05-08 18:20 | 39.37195 | 20.19182 | 10067 ft | 274 kts | 263° |
| 2026-05-08 18:20 | 39.37048 | 20.16803 | 9641 ft | 259 kts | 266° |
| 2026-05-08 18:20 | 39.36967 | 20.14503 | 9000 ft | 255 kts | 266° |
| 2026-05-08 18:20 | 39.36872 | 20.12223 | 8362 ft | 252 kts | 266° |
| 2026-05-08 18:21 | 39.36760 | 20.09970 | 7727 ft | 250 kts | 265° |
| 2026-05-08 18:21 | 39.36651 | 20.07727 | 7122 ft | 250 kts | 265° |
| 2026-05-08 18:21 | 39.36546 | 20.05493 | 6506 ft | 249 kts | 265° |
| 2026-05-08 18:21 | 39.36461 | 20.03264 | 5867 ft | 246 kts | 269° |
| 2026-05-08 18:22 | 39.36806 | 20.01155 | 5171 ft | 240 kts | 291° |
| 2026-05-08 18:22 | 39.37756 | 19.99408 | 4498 ft | 239 kts | 313° |
| 2026-05-08 18:22 | 39.39172 | 19.98275 | 3959 ft | 238 kts | 337° |
| 2026-05-08 18:22 | 39.40721 | 19.97907 | 3774 ft | 222 kts | 354° |
| 2026-05-08 18:23 | 39.42259 | 19.97799 | 3326 ft | 219 kts | 351° |
| 2026-05-08 18:23 | 39.43724 | 19.97295 | 2892 ft | 216 kts | 340° |
| 2026-05-08 18:23 | 39.45104 | 19.96756 | 2801 ft | 204 kts | 339° |
| 2026-05-08 18:23 | 39.46478 | 19.96241 | 2543 ft | 205 kts | 341° |
| 2026-05-08 18:24 | 39.47842 | 19.95734 | 2282 ft | 198 kts | 340° |
| 2026-05-08 18:24 | 39.49103 | 19.95266 | 2006 ft | 182 kts | 340° |
| 2026-05-08 18:24 | 39.50325 | 19.94805 | 1773 ft | 185 kts | 339° |
| 2026-05-08 18:24 | 39.51561 | 19.94338 | 1531 ft | 186 kts | 339° |
| 2026-05-08 18:25 | 39.52806 | 19.93872 | 1288 ft | 188 kts | 339° |
| 2026-05-08 18:25 | 39.54036 | 19.93414 | 1041 ft | 174 kts | 339° |
| 2026-05-08 18:25 | 39.55129 | 19.93003 | 825 ft | 159 kts | 342° |
| 2026-05-08 18:25 | 39.56128 | 19.92523 | 697 ft | 148 kts | 333° |
| 2026-05-08 18:26 | 39.57053 | 19.92055 | 540 ft | 140 kts | 343° |
| 2026-05-08 18:26 | 39.57988 | 19.91788 | 335 ft | 136 kts | 348° |
| 2026-05-08 18:26 | 39.58892 | 19.91547 | 132 ft | 129 kts | 348° |
| 2026-05-08 18:26 | 39.59718 | 19.91340 | 18 ft | 110 kts | 349° |
| 2026-05-08 18:27 | 39.60349 | 19.91173 | 17 ft | 60 kts | 348° |
| 2026-05-08 18:27 | 39.60535 | 19.91169 | 15 ft | 23 kts | 20° |
| 2026-05-08 18:27 | 39.60620 | 19.91232 | 15 ft | 5 kts | 8° |
| 2026-05-08 18:27 | 39.60650 | 19.91232 | 15 ft | 5 kts | 353° |
| 2026-05-08 18:28 | 39.60717 | 19.91213 | 15 ft | 14 kts | 349° |
| 2026-05-08 18:28 | 39.60822 | 19.91186 | 15 ft | 16 kts | 348° |
| 2026-05-08 18:28 | 39.60927 | 19.91158 | 15 ft | 13 kts | 348° |
| 2026-05-08 18:28 | 39.60976 | 19.91220 | 15 ft | 10 kts | 77° |
| 2026-05-08 18:29 | 39.60981 | 19.91249 | 15 ft | 0 kts | 78° |